sensor_id;sensor_type;location;lat;lon;timestamp;pressure;altitude;pressure_sealevel;temperature;humidity
5298;BME280;14738;42.668;23.250;2023-01-26T00:00:48;48680.16;;;-141.90;100.00
5298;BME280;14738;42.668;23.250;2023-01-26T00:03:13;48692.06;;;-141.90;100.00
5298;BME280;14738;42.668;23.250;2023-01-26T00:05:39;48694.06;;;-141.90;100.00
5298;BME280;14738;42.668;23.250;2023-01-26T00:08:05;48707.94;;;-141.90;100.00
5298;BME280;14738;42.668;23.250;2023-01-26T00:10:31;48711.91;;;-141.90;100.00
5298;BME280;14738;42.668;23.250;2023-01-26T00:12:56;48696.03;;;-141.90;100.00
5298;BME280;14738;42.668;23.250;2023-01-26T00:15:22;48696.03;;;-141.90;100.00
5298;BME280;14738;42.668;23.250;2023-01-26T00:17:47;48713.91;;;-141.90;100.00
5298;BME280;14738;42.668;23.250;2023-01-26T00:20:15;48686.13;;;-141.90;100.00
5298;BME280;14738;42.668;23.250;2023-01-26T00:22:41;48692.06;;;-141.90;100.00
5298;BME280;14738;42.668;23.250;2023-01-26T00:25:06;48672.22;;;-141.90;100.00
5298;BME280;14738;42.668;23.250;2023-01-26T00:27:32;48700.00;;;-141.90;100.00
5298;BME280;14738;42.668;23.250;2023-01-26T00:29:57;48668.25;;;-141.90;100.00
5298;BME280;14738;42.668;23.250;2023-01-26T00:32:22;48703.97;;;-141.90;100.00
5298;BME280;14738;42.668;23.250;2023-01-26T00:34:48;48690.09;;;-141.90;100.00
5298;BME280;14738;42.668;23.250;2023-01-26T00:37:13;48672.22;;;-141.90;100.00
5298;BME280;14738;42.668;23.250;2023-01-26T00:39:39;48700.00;;;-141.90;100.00
5298;BME280;14738;42.668;23.250;2023-01-26T00:42:04;48688.09;;;-141.90;100.00
5298;BME280;14738;42.668;23.250;2023-01-26T00:44:37;48698.03;;;-141.90;100.00
5298;BME280;14738;42.668;23.250;2023-01-26T00:47:08;48688.09;;;-141.90;100.00
5298;BME280;14738;42.668;23.250;2023-01-26T00:49:34;48674.19;;;-141.90;100.00
5298;BME280;14738;42.668;23.250;2023-01-26T00:52:00;48672.22;;;-141.90;100.00
5298;BME280;14738;42.668;23.250;2023-01-26T00:54:26;48674.19;;;-141.90;100.00
5298;BME280;14738;42.668;23.250;2023-01-26T00:56:52;48711.91;;;-141.90;100.00
5298;BME280;14738;42.668;23.250;2023-01-26T00:59:18;48700.00;;;-141.90;100.00
5298;BME280;14738;42.668;23.250;2023-01-26T01:01:43;48700.00;;;-141.90;100.00
5298;BME280;14738;42.668;23.250;2023-01-26T01:04:09;48707.94;;;-141.90;100.00
5298;BME280;14738;42.668;23.250;2023-01-26T01:06:34;48725.81;;;-141.90;100.00
5298;BME280;14738;42.668;23.250;2023-01-26T01:09:00;48707.94;;;-141.90;100.00
5298;BME280;14738;42.668;23.250;2023-01-26T01:11:25;48682.13;;;-141.90;100.00
5298;BME280;14738;42.668;23.250;2023-01-26T01:13:51;48696.03;;;-141.90;100.00
5298;BME280;14738;42.668;23.250;2023-01-26T01:16:16;48692.06;;;-141.90;100.00
5298;BME280;14738;42.668;23.250;2023-01-26T01:18:43;48727.81;;;-141.90;100.00
5298;BME280;14738;42.668;23.250;2023-01-26T01:21:10;48694.06;;;-141.90;100.00
5298;BME280;14738;42.668;23.250;2023-01-26T01:23:36;48696.03;;;-141.90;100.00
5298;BME280;14738;42.668;23.250;2023-01-26T01:26:02;48692.06;;;-141.90;100.00
5298;BME280;14738;42.668;23.250;2023-01-26T01:28:28;48682.13;;;-141.90;100.00
5298;BME280;14738;42.668;23.250;2023-01-26T01:30:53;48688.09;;;-141.90;100.00
5298;BME280;14738;42.668;23.250;2023-01-26T01:33:19;48696.03;;;-141.90;100.00
5298;BME280;14738;42.668;23.250;2023-01-26T01:35:55;48688.09;;;-141.90;100.00
5298;BME280;14738;42.668;23.250;2023-01-26T01:38:21;48700.00;;;-141.90;100.00
5298;BME280;14738;42.668;23.250;2023-01-26T01:40:46;48747.66;;;-141.90;100.00
5298;BME280;14738;42.668;23.250;2023-01-26T01:43:12;48703.97;;;-141.90;100.00
5298;BME280;14738;42.668;23.250;2023-01-26T01:45:47;48713.91;;;-141.90;100.00
5298;BME280;14738;42.668;23.250;2023-01-26T01:48:21;48705.97;;;-141.90;100.00
5298;BME280;14738;42.668;23.250;2023-01-26T01:50:51;48688.09;;;-141.90;100.00
5298;BME280;14738;42.668;23.250;2023-01-26T01:53:21;48684.13;;;-141.90;100.00
5298;BME280;14738;42.668;23.250;2023-01-26T01:55:54;48713.91;;;-141.90;100.00
5298;BME280;14738;42.668;23.250;2023-01-26T01:58:21;48700.00;;;-141.90;100.00
5298;BME280;14738;42.668;23.250;2023-01-26T02:00:46;48678.16;;;-141.90;100.00
5298;BME280;14738;42.668;23.250;2023-01-26T02:03:12;48715.91;;;-141.90;100.00
5298;BME280;14738;42.668;23.250;2023-01-26T02:05:59;48692.06;;;-141.90;100.00
5298;BME280;14738;42.668;23.250;2023-01-26T02:08:53;48696.03;;;-141.90;100.00
5298;BME280;14738;42.668;23.250;2023-01-26T02:11:30;48668.25;;;-141.90;100.00
5298;BME280;14738;42.668;23.250;2023-01-26T02:13:59;48696.03;;;-141.90;100.00
5298;BME280;14738;42.668;23.250;2023-01-26T02:16:26;48711.91;;;-141.90;100.00
5298;BME280;14738;42.668;23.250;2023-01-26T02:18:52;48692.06;;;-141.90;100.00
5298;BME280;14738;42.668;23.250;2023-01-26T02:21:21;48676.19;;;-141.90;100.00
5298;BME280;14738;42.668;23.250;2023-01-26T02:24:24;48686.13;;;-141.90;100.00
5298;BME280;14738;42.668;23.250;2023-01-26T02:26:52;48700.00;;;-141.90;100.00
5298;BME280;14738;42.668;23.250;2023-01-26T02:29:18;48674.19;;;-141.90;100.00
5298;BME280;14738;42.668;23.250;2023-01-26T02:31:45;48684.13;;;-141.90;100.00
5298;BME280;14738;42.668;23.250;2023-01-26T02:34:11;48692.06;;;-141.90;100.00
5298;BME280;14738;42.668;23.250;2023-01-26T02:36:36;48700.00;;;-141.90;100.00
5298;BME280;14738;42.668;23.250;2023-01-26T02:41:36;48690.09;;;-141.90;100.00
5298;BME280;14738;42.668;23.250;2023-01-26T02:44:21;48686.13;;;-141.90;100.00
5298;BME280;14738;42.668;23.250;2023-01-26T02:46:46;48707.94;;;-141.90;100.00
5298;BME280;14738;42.668;23.250;2023-01-26T02:49:11;48700.00;;;-141.90;100.00
5298;BME280;14738;42.668;23.250;2023-01-26T02:51:55;48721.84;;;-141.90;100.00
5298;BME280;14738;42.668;23.250;2023-01-26T02:54:21;48680.16;;;-141.90;100.00
5298;BME280;14738;42.668;23.250;2023-01-26T02:57:05;48700.00;;;-141.90;100.00
5298;BME280;14738;42.668;23.250;2023-01-26T02:59:30;48690.09;;;-141.90;100.00
5298;BME280;14738;42.668;23.250;2023-01-26T03:01:56;48703.97;;;-141.90;100.00
5298;BME280;14738;42.668;23.250;2023-01-26T03:04:22;48707.94;;;-141.90;100.00
5298;BME280;14738;42.668;23.250;2023-01-26T03:06:47;48707.94;;;-141.90;100.00
5298;BME280;14738;42.668;23.250;2023-01-26T03:09:13;48690.09;;;-141.90;100.00
5298;BME280;14738;42.668;23.250;2023-01-26T03:11:38;48672.22;;;-141.90;100.00
5298;BME280;14738;42.668;23.250;2023-01-26T03:14:13;48688.09;;;-141.90;100.00
5298;BME280;14738;42.668;23.250;2023-01-26T03:16:40;48703.97;;;-141.90;100.00
5298;BME280;14738;42.668;23.250;2023-01-26T03:19:12;48672.22;;;-141.90;100.00
5298;BME280;14738;42.668;23.250;2023-01-26T03:21:57;48692.06;;;-141.90;100.00
5298;BME280;14738;42.668;23.250;2023-01-26T03:24:42;48696.03;;;-141.90;100.00
5298;BME280;14738;42.668;23.250;2023-01-26T03:27:27;48707.94;;;-141.90;100.00
5298;BME280;14738;42.668;23.250;2023-01-26T03:29:56;48696.03;;;-141.90;100.00
5298;BME280;14738;42.668;23.250;2023-01-26T03:32:22;48702.00;;;-141.90;100.00
5298;BME280;14738;42.668;23.250;2023-01-26T03:34:47;48703.97;;;-141.90;100.00
5298;BME280;14738;42.668;23.250;2023-01-26T03:37:13;48676.19;;;-141.90;100.00
5298;BME280;14738;42.668;23.250;2023-01-26T03:39:38;48700.00;;;-141.90;100.00
5298;BME280;14738;42.668;23.250;2023-01-26T03:42:22;48680.16;;;-141.90;100.00
5298;BME280;14738;42.668;23.250;2023-01-26T03:45:06;48672.22;;;-141.90;100.00
5298;BME280;14738;42.668;23.250;2023-01-26T03:47:50;48713.91;;;-141.90;100.00
5298;BME280;14738;42.668;23.250;2023-01-26T03:50:34;48707.94;;;-141.90;100.00
5298;BME280;14738;42.668;23.250;2023-01-26T03:53:20;48686.13;;;-141.90;100.00
5298;BME280;14738;42.668;23.250;2023-01-26T03:56:05;48682.13;;;-141.90;100.00
5298;BME280;14738;42.668;23.250;2023-01-26T03:59:00;48727.81;;;-141.90;100.00
5298;BME280;14738;42.668;23.250;2023-01-26T04:01:33;48680.16;;;-141.90;100.00
5298;BME280;14738;42.668;23.250;2023-01-26T04:03:59;48711.91;;;-141.90;100.00
5298;BME280;14738;42.668;23.250;2023-01-26T04:06:44;48684.13;;;-141.90;100.00
5298;BME280;14738;42.668;23.250;2023-01-26T04:09:30;48680.16;;;-141.90;100.00
5298;BME280;14738;42.668;23.250;2023-01-26T04:11:56;48727.81;;;-141.90;100.00
5298;BME280;14738;42.668;23.250;2023-01-26T04:14:21;48700.00;;;-141.90;100.00
5298;BME280;14738;42.668;23.250;2023-01-26T04:17:05;48707.94;;;-141.90;100.00
5298;BME280;14738;42.668;23.250;2023-01-26T04:19:49;48713.91;;;-141.90;100.00
5298;BME280;14738;42.668;23.250;2023-01-26T04:22:39;48690.09;;;-141.90;100.00
5298;BME280;14738;42.668;23.250;2023-01-26T04:25:14;48711.91;;;-141.90;100.00
5298;BME280;14738;42.668;23.250;2023-01-26T04:27:41;48703.97;;;-141.90;100.00
5298;BME280;14738;42.668;23.250;2023-01-26T04:30:09;48703.97;;;-141.90;100.00
5298;BME280;14738;42.668;23.250;2023-01-26T04:32:35;48725.81;;;-141.90;100.00
5298;BME280;14738;42.668;23.250;2023-01-26T04:35:00;48723.84;;;-141.90;100.00
5298;BME280;14738;42.668;23.250;2023-01-26T04:37:26;48696.03;;;-141.90;100.00
5298;BME280;14738;42.668;23.250;2023-01-26T04:39:51;48686.13;;;-141.90;100.00
5298;BME280;14738;42.668;23.250;2023-01-26T04:42:17;48680.16;;;-141.90;100.00
5298;BME280;14738;42.668;23.250;2023-01-26T04:44:42;48709.94;;;-141.90;100.00
5298;BME280;14738;42.668;23.250;2023-01-26T04:47:08;48702.00;;;-141.90;100.00
5298;BME280;14738;42.668;23.250;2023-01-26T04:49:33;48694.06;;;-141.90;100.00
5298;BME280;14738;42.668;23.250;2023-01-26T04:51:59;48700.00;;;-141.90;100.00
5298;BME280;14738;42.668;23.250;2023-01-26T04:54:24;48674.19;;;-141.90;100.00
5298;BME280;14738;42.668;23.250;2023-01-26T04:56:49;48676.19;;;-141.90;100.00
5298;BME280;14738;42.668;23.250;2023-01-26T04:59:16;48688.09;;;-141.90;100.00
5298;BME280;14738;42.668;23.250;2023-01-26T05:01:41;48711.91;;;-141.90;100.00
5298;BME280;14738;42.668;23.250;2023-01-26T05:04:07;48719.88;;;-141.90;100.00
5298;BME280;14738;42.668;23.250;2023-01-26T05:06:33;48698.03;;;-141.90;100.00
5298;BME280;14738;42.668;23.250;2023-01-26T05:08:58;48711.91;;;-141.90;100.00
5298;BME280;14738;42.668;23.250;2023-01-26T05:11:23;48700.00;;;-141.90;100.00
5298;BME280;14738;42.668;23.250;2023-01-26T05:13:49;48713.91;;;-141.90;100.00
5298;BME280;14738;42.668;23.250;2023-01-26T05:16:15;48668.25;;;-141.90;100.00
5298;BME280;14738;42.668;23.250;2023-01-26T05:18:41;48684.13;;;-141.90;100.00
5298;BME280;14738;42.668;23.250;2023-01-26T05:21:07;48711.91;;;-141.90;100.00
5298;BME280;14738;42.668;23.250;2023-01-26T05:23:33;48676.19;;;-141.90;100.00
5298;BME280;14738;42.668;23.250;2023-01-26T05:25:59;48696.03;;;-141.90;100.00
5298;BME280;14738;42.668;23.250;2023-01-26T05:28:24;48702.00;;;-141.90;100.00
5298;BME280;14738;42.668;23.250;2023-01-26T05:30:49;48686.13;;;-141.90;100.00
5298;BME280;14738;42.668;23.250;2023-01-26T05:33:15;48696.03;;;-141.90;100.00
5298;BME280;14738;42.668;23.250;2023-01-26T05:35:41;48688.09;;;-141.90;100.00
5298;BME280;14738;42.668;23.250;2023-01-26T05:38:06;48668.25;;;-141.90;100.00
5298;BME280;14738;42.668;23.250;2023-01-26T05:40:32;48700.00;;;-141.90;100.00
5298;BME280;14738;42.668;23.250;2023-01-26T05:42:57;48711.91;;;-141.90;100.00
5298;BME280;14738;42.668;23.250;2023-01-26T05:45:22;48684.13;;;-141.90;100.00
5298;BME280;14738;42.668;23.250;2023-01-26T05:47:48;48696.03;;;-141.90;100.00
5298;BME280;14738;42.668;23.250;2023-01-26T05:50:14;48700.00;;;-141.90;100.00
5298;BME280;14738;42.668;23.250;2023-01-26T05:52:41;48696.03;;;-141.90;100.00
5298;BME280;14738;42.668;23.250;2023-01-26T05:55:07;48703.97;;;-141.90;100.00
5298;BME280;14738;42.668;23.250;2023-01-26T05:57:33;48680.16;;;-141.90;100.00
5298;BME280;14738;42.668;23.250;2023-01-26T05:59:59;48676.19;;;-141.90;100.00
5298;BME280;14738;42.668;23.250;2023-01-26T06:02:24;48700.00;;;-141.90;100.00
5298;BME280;14738;42.668;23.250;2023-01-26T06:04:51;48668.25;;;-141.90;100.00
5298;BME280;14738;42.668;23.250;2023-01-26T06:07:17;48696.03;;;-141.90;100.00
5298;BME280;14738;42.668;23.250;2023-01-26T06:09:43;48674.19;;;-141.90;100.00
5298;BME280;14738;42.668;23.250;2023-01-26T06:12:28;48694.06;;;-141.90;100.00
5298;BME280;14738;42.668;23.250;2023-01-26T06:14:56;48700.00;;;-141.90;100.00
5298;BME280;14738;42.668;23.250;2023-01-26T06:17:21;48692.06;;;-141.90;100.00
5298;BME280;14738;42.668;23.250;2023-01-26T06:19:47;48700.00;;;-141.90;100.00
5298;BME280;14738;42.668;23.250;2023-01-26T06:22:13;48690.09;;;-141.90;100.00
5298;BME280;14738;42.668;23.250;2023-01-26T06:24:38;48686.13;;;-141.90;100.00
5298;BME280;14738;42.668;23.250;2023-01-26T06:27:06;48694.06;;;-141.90;100.00
5298;BME280;14738;42.668;23.250;2023-01-26T06:29:32;48700.00;;;-141.90;100.00
5298;BME280;14738;42.668;23.250;2023-01-26T06:31:59;48668.25;;;-141.90;100.00
5298;BME280;14738;42.668;23.250;2023-01-26T06:34:25;48694.06;;;-141.90;100.00
5298;BME280;14738;42.668;23.250;2023-01-26T06:36:50;48664.28;;;-141.90;100.00
5298;BME280;14738;42.668;23.250;2023-01-26T06:39:16;48700.00;;;-141.90;100.00
5298;BME280;14738;42.668;23.250;2023-01-26T06:41:42;48650.38;;;-141.90;100.00
5298;BME280;14738;42.668;23.250;2023-01-26T06:44:08;48676.19;;;-141.90;100.00
5298;BME280;14738;42.668;23.250;2023-01-26T06:46:34;48662.28;;;-141.90;100.00
5298;BME280;14738;42.668;23.250;2023-01-26T06:49:03;48680.16;;;-141.90;100.00
5298;BME280;14738;42.668;23.250;2023-01-26T06:54:11;48676.19;;;-141.90;100.00
5298;BME280;14738;42.668;23.250;2023-01-26T06:56:37;48668.25;;;-141.90;100.00
5298;BME280;14738;42.668;23.250;2023-01-26T06:59:03;48694.06;;;-141.90;100.00
5298;BME280;14738;42.668;23.250;2023-01-26T07:01:33;48664.28;;;-141.90;100.00
5298;BME280;14738;42.668;23.250;2023-01-26T07:04:00;48690.09;;;-141.90;100.00
5298;BME280;14738;42.668;23.250;2023-01-26T07:06:25;48652.38;;;-141.90;100.00
5298;BME280;14738;42.668;23.250;2023-01-26T07:08:51;48684.13;;;-141.90;100.00
5298;BME280;14738;42.668;23.250;2023-01-26T07:11:16;48676.19;;;-141.90;100.00
5298;BME280;14738;42.668;23.250;2023-01-26T07:13:44;48684.13;;;-141.90;100.00
5298;BME280;14738;42.668;23.250;2023-01-26T07:16:11;48656.34;;;-141.90;100.00
5298;BME280;14738;42.668;23.250;2023-01-26T07:18:37;48692.06;;;-141.90;100.00
5298;BME280;14738;42.668;23.250;2023-01-26T07:21:04;48688.09;;;-141.90;100.00
5298;BME280;14738;42.668;23.250;2023-01-26T07:23:30;48652.38;;;-141.90;100.00
5298;BME280;14738;42.668;23.250;2023-01-26T07:25:55;48680.16;;;-141.90;100.00
5298;BME280;14738;42.668;23.250;2023-01-26T07:28:21;48676.19;;;-141.90;100.00
5298;BME280;14738;42.668;23.250;2023-01-26T07:30:47;48698.03;;;-141.90;100.00
5298;BME280;14738;42.668;23.250;2023-01-26T07:33:13;48666.25;;;-141.90;100.00
5298;BME280;14738;42.668;23.250;2023-01-26T07:35:39;48696.03;;;-141.90;100.00
5298;BME280;14738;42.668;23.250;2023-01-26T07:38:04;48678.16;;;-141.90;100.00
5298;BME280;14738;42.668;23.250;2023-01-26T07:40:29;48660.31;;;-141.90;100.00
5298;BME280;14738;42.668;23.250;2023-01-26T07:42:56;48680.16;;;-141.90;100.00
5298;BME280;14738;42.668;23.250;2023-01-26T07:45:21;48700.00;;;-141.90;100.00
5298;BME280;14738;42.668;23.250;2023-01-26T07:47:46;48656.34;;;-141.90;100.00
5298;BME280;14738;42.668;23.250;2023-01-26T07:50:12;48672.22;;;-141.90;100.00
5298;BME280;14738;42.668;23.250;2023-01-26T07:52:38;48660.31;;;-141.90;100.00
5298;BME280;14738;42.668;23.250;2023-01-26T07:55:04;48684.13;;;-141.90;100.00
5298;BME280;14738;42.668;23.250;2023-01-26T07:57:30;48644.41;;;-141.90;100.00
5298;BME280;14738;42.668;23.250;2023-01-26T07:59:56;48674.19;;;-141.90;100.00
5298;BME280;14738;42.668;23.250;2023-01-26T08:02:21;48652.38;;;-141.90;100.00
5298;BME280;14738;42.668;23.250;2023-01-26T08:04:46;48678.16;;;-141.90;100.00
5298;BME280;14738;42.668;23.250;2023-01-26T08:07:13;48644.41;;;-141.90;100.00
5298;BME280;14738;42.668;23.250;2023-01-26T08:09:38;48676.19;;;-141.90;100.00
5298;BME280;14738;42.668;23.250;2023-01-26T08:12:04;48652.38;;;-141.90;100.00
5298;BME280;14738;42.668;23.250;2023-01-26T08:14:29;48680.16;;;-141.90;100.00
5298;BME280;14738;42.668;23.250;2023-01-26T08:16:55;48670.22;;;-141.90;100.00
5298;BME280;14738;42.668;23.250;2023-01-26T08:19:20;48664.28;;;-141.90;100.00
5298;BME280;14738;42.668;23.250;2023-01-26T08:21:46;48664.28;;;-141.90;100.00
5298;BME280;14738;42.668;23.250;2023-01-26T08:24:11;48664.28;;;-141.90;100.00
5298;BME280;14738;42.668;23.250;2023-01-26T08:26:37;48672.22;;;-141.90;100.00
5298;BME280;14738;42.668;23.250;2023-01-26T08:29:03;48652.38;;;-141.90;100.00
5298;BME280;14738;42.668;23.250;2023-01-26T08:31:28;48652.38;;;-141.90;100.00
5298;BME280;14738;42.668;23.250;2023-01-26T08:33:54;48668.25;;;-141.90;100.00
5298;BME280;14738;42.668;23.250;2023-01-26T08:36:21;48672.22;;;-141.90;100.00
5298;BME280;14738;42.668;23.250;2023-01-26T08:38:47;48686.13;;;-141.90;100.00
5298;BME280;14738;42.668;23.250;2023-01-26T08:41:12;48670.22;;;-141.90;100.00
5298;BME280;14738;42.668;23.250;2023-01-26T08:43:38;48642.44;;;-141.90;100.00
5298;BME280;14738;42.668;23.250;2023-01-26T08:46:04;48674.19;;;-141.90;100.00
5298;BME280;14738;42.668;23.250;2023-01-26T08:48:30;48650.38;;;-141.90;100.00
5298;BME280;14738;42.668;23.250;2023-01-26T08:50:57;48652.38;;;-141.90;100.00
5298;BME280;14738;42.668;23.250;2023-01-26T08:53:24;48688.09;;;-141.90;100.00
5298;BME280;14738;42.668;23.250;2023-01-26T08:55:50;48684.13;;;-141.90;100.00
5298;BME280;14738;42.668;23.250;2023-01-26T08:58:15;48668.25;;;-141.90;100.00
5298;BME280;14738;42.668;23.250;2023-01-26T09:00:41;48650.38;;;-141.90;100.00
5298;BME280;14738;42.668;23.250;2023-01-26T09:03:06;48678.16;;;-141.90;100.00
5298;BME280;14738;42.668;23.250;2023-01-26T09:05:35;48656.34;;;-141.90;100.00
5298;BME280;14738;42.668;23.250;2023-01-26T09:08:01;48686.13;;;-141.90;100.00
5298;BME280;14738;42.668;23.250;2023-01-26T09:10:27;48652.38;;;-141.90;100.00
5298;BME280;14738;42.668;23.250;2023-01-26T09:12:53;48684.13;;;-141.90;100.00
5298;BME280;14738;42.668;23.250;2023-01-26T09:15:18;48668.25;;;-141.90;100.00
5298;BME280;14738;42.668;23.250;2023-01-26T09:17:47;48644.41;;;-141.90;100.00
5298;BME280;14738;42.668;23.250;2023-01-26T09:20:13;48642.44;;;-141.90;100.00
5298;BME280;14738;42.668;23.250;2023-01-26T09:22:38;48650.38;;;-141.90;100.00
5298;BME280;14738;42.668;23.250;2023-01-26T09:25:04;48662.28;;;-141.90;100.00
5298;BME280;14738;42.668;23.250;2023-01-26T09:27:30;48648.38;;;-141.90;100.00
5298;BME280;14738;42.668;23.250;2023-01-26T09:29:55;48656.34;;;-141.90;100.00
5298;BME280;14738;42.668;23.250;2023-01-26T09:32:21;48640.44;;;-141.90;100.00
5298;BME280;14738;42.668;23.250;2023-01-26T09:34:47;48656.34;;;-141.90;100.00
5298;BME280;14738;42.668;23.250;2023-01-26T09:37:13;48652.38;;;-141.90;100.00
5298;BME280;14738;42.668;23.250;2023-01-26T09:39:41;48632.50;;;-141.90;100.00
5298;BME280;14738;42.668;23.250;2023-01-26T09:53:15;48670.22;;;-141.90;100.00
5298;BME280;14738;42.668;23.250;2023-01-26T09:55:41;48654.34;;;-141.90;100.00
5298;BME280;14738;42.668;23.250;2023-01-26T09:58:14;48670.22;;;-141.90;100.00
5298;BME280;14738;42.668;23.250;2023-01-26T10:00:51;48680.16;;;-141.90;100.00
5298;BME280;14738;42.668;23.250;2023-01-26T10:03:42;48684.13;;;-141.90;100.00
5298;BME280;14738;42.668;23.250;2023-01-26T10:06:28;48634.50;;;-141.90;100.00
5298;BME280;14738;42.668;23.250;2023-01-26T10:08:59;48648.38;;;-141.90;100.00
5298;BME280;14738;42.668;23.250;2023-01-26T10:11:34;48652.38;;;-141.90;100.00
5298;BME280;14738;42.668;23.250;2023-01-26T10:16:45;48644.41;;;-141.90;100.00
5298;BME280;14738;42.668;23.250;2023-01-26T10:22:04;48654.34;;;-141.90;100.00
5298;BME280;14738;42.668;23.250;2023-01-26T10:24:31;48648.38;;;-141.90;100.00
5298;BME280;14738;42.668;23.250;2023-01-26T10:26:58;48648.38;;;-141.90;100.00
5298;BME280;14738;42.668;23.250;2023-01-26T10:29:24;48632.50;;;-141.90;100.00
5298;BME280;14738;42.668;23.250;2023-01-26T10:31:49;48604.72;;;-141.90;100.00
5298;BME280;14738;42.668;23.250;2023-01-26T10:34:17;48644.41;;;-141.90;100.00
5298;BME280;14738;42.668;23.250;2023-01-26T10:36:45;48652.38;;;-141.90;100.00
5298;BME280;14738;42.668;23.250;2023-01-26T10:39:13;48672.22;;;-141.90;100.00
5298;BME280;14738;42.668;23.250;2023-01-26T10:41:39;48672.22;;;-141.90;100.00
5298;BME280;14738;42.668;23.250;2023-01-26T10:46:41;48652.38;;;-141.90;100.00
5298;BME280;14738;42.668;23.250;2023-01-26T10:52:05;48664.28;;;-141.90;100.00
5298;BME280;14738;42.668;23.250;2023-01-26T10:54:32;48642.44;;;-141.90;100.00
5298;BME280;14738;42.668;23.250;2023-01-26T10:57:02;48652.38;;;-141.90;100.00
5298;BME280;14738;42.668;23.250;2023-01-26T11:12:50;48628.53;;;-141.90;100.00
5298;BME280;14738;42.668;23.250;2023-01-26T11:15:19;48642.44;;;-141.90;100.00
5298;BME280;14738;42.668;23.250;2023-01-26T11:17:59;48650.38;;;-141.90;100.00
5298;BME280;14738;42.668;23.250;2023-01-26T11:20:46;48648.38;;;-141.90;100.00
5298;BME280;14738;42.668;23.250;2023-01-26T11:23:33;48660.31;;;-141.90;100.00
5298;BME280;14738;42.668;23.250;2023-01-26T11:26:17;48620.59;;;-141.90;100.00
5298;BME280;14738;42.668;23.250;2023-01-26T11:37:54;48642.44;;;-141.90;100.00
5298;BME280;14738;42.668;23.250;2023-01-26T11:57:29;48614.63;;;-141.90;100.00
5298;BME280;14738;42.668;23.250;2023-01-26T12:00:16;48668.25;;;-141.90;100.00
5298;BME280;14738;42.668;23.250;2023-01-26T12:02:50;48636.47;;;-141.90;100.00
5298;BME280;14738;42.668;23.250;2023-01-26T12:05:21;48634.50;;;-141.90;100.00
5298;BME280;14738;42.668;23.250;2023-01-26T12:08:04;48654.34;;;-141.90;100.00
5298;BME280;14738;42.668;23.250;2023-01-26T12:10:56;48628.53;;;-141.90;100.00
5298;BME280;14738;42.668;23.250;2023-01-26T12:13:42;48684.13;;;-141.90;100.00
5298;BME280;14738;42.668;23.250;2023-01-26T12:16:34;48638.47;;;-141.90;100.00
5298;BME280;14738;42.668;23.250;2023-01-26T12:21:29;48596.78;;;-141.90;100.00
5298;BME280;14738;42.668;23.250;2023-01-26T12:24:01;48648.38;;;-141.90;100.00
5298;BME280;14738;42.668;23.250;2023-01-26T12:26:31;48618.59;;;-141.90;100.00
5298;BME280;14738;42.668;23.250;2023-01-26T12:29:01;48644.41;;;-141.90;100.00
5298;BME280;14738;42.668;23.250;2023-01-26T12:31:56;48652.38;;;-141.90;100.00
5298;BME280;14738;42.668;23.250;2023-01-26T12:34:26;48640.44;;;-141.90;100.00
5298;BME280;14738;42.668;23.250;2023-01-26T12:37:35;48652.38;;;-141.90;100.00
5298;BME280;14738;42.668;23.250;2023-01-26T12:43:10;48622.59;;;-141.90;100.00
5298;BME280;14738;42.668;23.250;2023-01-26T12:45:41;48676.19;;;-141.90;100.00
5298;BME280;14738;42.668;23.250;2023-01-26T12:48:22;48654.34;;;-141.90;100.00
5298;BME280;14738;42.668;23.250;2023-01-26T12:50:58;48656.34;;;-141.90;100.00
5298;BME280;14738;42.668;23.250;2023-01-26T12:53:30;48648.38;;;-141.90;100.00
5298;BME280;14738;42.668;23.250;2023-01-26T12:56:19;48630.53;;;-141.90;100.00
5298;BME280;14738;42.668;23.250;2023-01-26T12:58:47;48644.41;;;-141.90;100.00
5298;BME280;14738;42.668;23.250;2023-01-26T13:01:19;48652.38;;;-141.90;100.00
5298;BME280;14738;42.668;23.250;2023-01-26T13:03:56;48648.38;;;-141.90;100.00
5298;BME280;14738;42.668;23.250;2023-01-26T13:06:24;48640.44;;;-141.90;100.00
5298;BME280;14738;42.668;23.250;2023-01-26T13:22:36;48642.44;;;-141.90;100.00
5298;BME280;14738;42.668;23.250;2023-01-26T13:35:14;48608.69;;;-141.90;100.00
5298;BME280;14738;42.668;23.250;2023-01-26T13:40:34;48632.50;;;-141.90;100.00
5298;BME280;14738;42.668;23.250;2023-01-26T13:48:29;48666.25;;;-141.90;100.00
5298;BME280;14738;42.668;23.250;2023-01-26T13:50:59;48652.38;;;-141.90;100.00
5298;BME280;14738;42.668;23.250;2023-01-26T13:57:04;48668.25;;;-141.90;100.00
5298;BME280;14738;42.668;23.250;2023-01-26T13:59:31;48670.22;;;-141.90;100.00
5298;BME280;14738;42.668;23.250;2023-01-26T14:01:58;48604.72;;;-141.90;100.00
5298;BME280;14738;42.668;23.250;2023-01-26T14:04:35;48648.38;;;-141.90;100.00
5298;BME280;14738;42.668;23.250;2023-01-26T14:07:05;48648.38;;;-141.90;100.00
5298;BME280;14738;42.668;23.250;2023-01-26T14:09:33;48648.38;;;-141.90;100.00
5298;BME280;14738;42.668;23.250;2023-01-26T14:12:04;48660.31;;;-141.90;100.00
5298;BME280;14738;42.668;23.250;2023-01-26T14:14:33;48650.38;;;-141.90;100.00
5298;BME280;14738;42.668;23.250;2023-01-26T14:16:59;48650.38;;;-141.90;100.00
5298;BME280;14738;42.668;23.250;2023-01-26T14:19:27;48658.31;;;-141.90;100.00
5298;BME280;14738;42.668;23.250;2023-01-26T14:21:58;48660.31;;;-141.90;100.00
5298;BME280;14738;42.668;23.250;2023-01-26T14:24:35;48652.38;;;-141.90;100.00
5298;BME280;14738;42.668;23.250;2023-01-26T14:27:14;48656.34;;;-141.90;100.00
5298;BME280;14738;42.668;23.250;2023-01-26T14:29:46;48648.38;;;-141.90;100.00